M I D A S
Marine Information and Data Acquisition System
Tripno 1098 of the Zeeleeuw from 2006-03-21 08:03:09 to 2006-03-21 13:01:36
Back to CruiseResearch ActivitiesStationsMapUnderway DataData graphs

EquipmentUnitsComment
TimeDGPSUTC
LatitudeDGPSDM.mWGS84
LongitudeDGPSDM.mWGS84
HeadingGyrodeg 
SOGDGPSknotsSpeed over ground
COGDGPSdegCourse over ground
DepthEcho soundermeters200 kHz
Missing or incorrect values are displayed as -999
Navigation data collected by the RV Zeeleeuw from 2006-03-21 07:48:32 to 2006-03-21 13:15:32
                                                                                    Next 1000 lines
Time Latitude Longitude Heading SOG COG Depth
2006-03-21 07:48:41 51°13.6 2°56.095 127.5 0.1 175 7
2006-03-21 07:48:47 51°13.601 2°56.095 127.7 0.1 62 7
2006-03-21 07:48:51 51°13.602 2°56.095 127.8 -999 323 6.6
2006-03-21 07:48:57 51°13.602 2°56.095 127 -999 58 6.6
2006-03-21 07:49:01 51°13.602 2°56.096 126.4 0.1 149 6.7
2006-03-21 07:49:07 51°13.602 2°56.096 126 0.1 115 6.7
2006-03-21 07:49:12 51°13.601 2°56.095 125.7 0.1 205 6.7
2006-03-21 07:49:17 51°13.601 2°56.095 125.5 -999 232 6.9
2006-03-21 07:49:21 51°13.601 2°56.095 125.4 -999 206 6.6
2006-03-21 07:49:27 51°13.601 2°56.095 125.4 0.1 181 7
2006-03-21 07:49:32 51°13.601 2°56.095 125.5 0.1 189 5.3
2006-03-21 07:49:37 51°13.6 2°56.095 125.8 -999 46 7.3
2006-03-21 07:49:42 51°13.6 2°56.095 126 -999 226 7
2006-03-21 07:49:47 51°13.6 2°56.095 126.2 -999 99 7
2006-03-21 07:49:52 51°13.599 2°56.095 126.2 -999 198 7
2006-03-21 07:49:57 51°13.599 2°56.095 126.2 -999 16 7
2006-03-21 07:50:01 51°13.599 2°56.095 126.2 -999 177 7.1
2006-03-21 07:50:07 51°13.599 2°56.095 126.2 -999 52 7.1
2006-03-21 07:50:12 51°13.599 2°56.095 126.2 -999 153 7
2006-03-21 07:50:17 51°13.599 2°56.095 126.1 -999 77 6.8
2006-03-21 07:50:21 51°13.599 2°56.095 126 -999 77 6.8
2006-03-21 07:50:27 51°13.599 2°56.095 125.9 -999 129 6.8
2006-03-21 07:50:32 51°13.599 2°56.095 125.8 -999 95 6.8
2006-03-21 07:50:37 51°13.599 2°56.095 125.7 -999 48 6.5
2006-03-21 07:50:41 51°13.599 2°56.095 125.7 -999 115 6.5
2006-03-21 07:50:47 51°13.599 2°56.095 125.7 0.1 152 6.6
2006-03-21 07:50:52 51°13.599 2°56.095 125.7 -999 329 6.5
2006-03-21 07:50:57 51°13.599 2°56.095 125.7 -999 204 6.6
2006-03-21 07:51:02 51°13.599 2°56.095 125.7 -999 214 6.6
2006-03-21 07:51:07 51°13.599 2°56.095 125.9 -999 302 6.5
2006-03-21 07:51:12 51°13.599 2°56.095 126 -999 334 6.6
2006-03-21 07:51:17 51°13.599 2°56.095 126.1 -999 59 6.7
2006-03-21 07:51:21 51°13.599 2°56.095 126.1 -999 106 6.6
2006-03-21 07:51:27 51°13.599 2°56.095 126.1 -999 29 6.5
2006-03-21 07:51:32 51°13.599 2°56.095 125.9 -999 330 6.6
2006-03-21 07:51:37 51°13.599 2°56.095 125.7 0.1 195 6.5
2006-03-21 07:51:41 51°13.599 2°56.095 125.6 0.1 194 6.5
2006-03-21 07:51:47 51°13.599 2°56.095 125.6 0.1 205 6.5
2006-03-21 07:51:51 51°13.599 2°56.095 125.5 -999 348 6.5
2006-03-21 07:51:57 51°13.599 2°56.095 125.5 0.1 356 6.5
2006-03-21 07:52:01 51°13.599 2°56.095 125.5 -999 218 6.5
2006-03-21 07:52:07 51°13.599 2°56.095 125.5 -999 218 6.5
2006-03-21 07:52:12 51°13.599 2°56.095 125.6 -999 194 6.6
2006-03-21 07:52:17 51°13.599 2°56.095 125.6 -999 175 6.5
2006-03-21 07:52:21 51°13.599 2°56.095 125.6 -999 124 6.5
2006-03-21 07:52:27 51°13.599 2°56.095 125.6 0.1 347 6.4
2006-03-21 07:52:31 51°13.599 2°56.095 125.6 -999 333 6.5
2006-03-21 07:52:37 51°13.599 2°56.095 125.6 -999 129 6.5
2006-03-21 07:52:41 51°13.599 2°56.095 125.6 -999 194 6.5
2006-03-21 07:52:47 51°13.599 2°56.095 125.6 -999 279 6.5
2006-03-21 07:52:52 51°13.599 2°56.095 125.7 0.1 192 6.5
2006-03-21 07:52:57 51°13.599 2°56.095 125.7 -999 161 6.5
2006-03-21 07:53:01 51°13.599 2°56.095 125.7 -999 192 6.5
2006-03-21 07:53:07 51°13.599 2°56.094 125.7 -999 174 6.5
2006-03-21 07:53:12 51°13.599 2°56.094 125.7 0.1 186 6.5
2006-03-21 07:53:17 51°13.599 2°56.094 125.7 -999 346 6.5
2006-03-21 07:53:21 51°13.599 2°56.094 125.7 -999 260 6.5
2006-03-21 07:53:27 51°13.598 2°56.094 125.7 -999 195 6.5
2006-03-21 07:53:32 51°13.598 2°56.094 125.7 -999 266 6.5
2006-03-21 07:53:37 51°13.597 2°56.094 125.7 -999 254 6.5
2006-03-21 07:53:41 51°13.597 2°56.094 125.7 -999 150 6.7
2006-03-21 07:53:47 51°13.597 2°56.094 125.8 -999 132 6.4
2006-03-21 07:53:52 51°13.597 2°56.094 125.8 -999 10 6.5
2006-03-21 07:53:57 51°13.596 2°56.094 125.8 -999 143 6.5
2006-03-21 07:54:01 51°13.596 2°56.094 125.8 -999 187 6.5
2006-03-21 07:54:06 51°13.596 2°56.094 125.8 -999 60 6.4
2006-03-21 07:54:11 51°13.596 2°56.094 125.8 -999 143 6.4
2006-03-21 07:54:17 51°13.595 2°56.094 125.8 -999 183 6.7
2006-03-21 07:54:21 51°13.595 2°56.094 125.8 -999 263 6.5
2006-03-21 07:54:27 51°13.595 2°56.094 125.8 0.1 180 6.4
2006-03-21 07:54:32 51°13.595 2°56.094 125.8 0.1 190 6.5
2006-03-21 07:54:37 51°13.595 2°56.094 125.8 0.1 183 6.9
2006-03-21 07:54:41 51°13.595 2°56.094 125.8 0.1 173 6.5
2006-03-21 07:54:47 51°13.595 2°56.094 125.8 -999 178 6.5
2006-03-21 07:54:52 51°13.595 2°56.094 125.8 -999 261 6.5
2006-03-21 07:54:57 51°13.595 2°56.094 125.8 -999 216 6.4
2006-03-21 07:55:02 51°13.595 2°56.094 125.8 -999 214 6.5
2006-03-21 07:55:07 51°13.596 2°56.094 125.9 -999 7 6.5
2006-03-21 07:55:12 51°13.596 2°56.094 125.9 -999 135 6.5
2006-03-21 07:55:17 51°13.595 2°56.094 125.9 -999 183 6.4
2006-03-21 07:55:22 51°13.595 2°56.094 125.9 -999 165 6.4
2006-03-21 07:55:27 51°13.595 2°56.094 125.9 0.1 257 6.4
2006-03-21 07:55:31 51°13.595 2°56.094 125.9 -999 27 6.7
2006-03-21 07:55:37 51°13.595 2°56.094 125.9 -999 55 6.7
2006-03-21 07:55:41 51°13.595 2°56.093 125.9 0.1 -999 6.5
2006-03-21 07:55:47 51°13.595 2°56.093 125.9 -999 142 6.5
2006-03-21 07:55:52 51°13.595 2°56.093 125.9 -999 181 6.4
2006-03-21 07:55:57 51°13.595 2°56.094 125.9 -999 30 6.5
2006-03-21 07:56:01 51°13.595 2°56.094 125.9 -999 307 6.5
2006-03-21 07:56:07 51°13.595 2°56.094 126 -999 268 6.5
2006-03-21 07:56:11 51°13.595 2°56.095 126 -999 207 6.5
2006-03-21 07:56:17 51°13.595 2°56.095 126.1 -999 190 6.5
2006-03-21 07:56:21 51°13.595 2°56.095 126.1 -999 189 6.5
2006-03-21 07:56:27 51°13.594 2°56.096 126.1 -999 70 6.5
2006-03-21 07:56:32 51°13.594 2°56.096 126.1 -999 302 6.4
2006-03-21 07:56:37 51°13.593 2°56.097 126.2 -999 312 6.5
2006-03-21 07:56:41 51°13.593 2°56.097 126.2 -999 230 6.5
2006-03-21 07:56:46 51°13.593 2°56.097 126.2 -999 250 6.8
2006-03-21 07:56:52 51°13.593 2°56.097 126.3 -999 256 6.6
2006-03-21 07:56:57 51°13.593 2°56.097 126.4 -999 25 6.8
2006-03-21 07:57:01 51°13.593 2°56.097 126.4 -999 224 6.8
2006-03-21 07:57:07 51°13.593 2°56.097 126.4 -999 183 6.8
2006-03-21 07:57:11 51°13.592 2°56.097 126.4 -999 178 6.8
2006-03-21 07:57:17 51°13.593 2°56.097 126.5 -999 140 6.8
2006-03-21 07:57:22 51°13.593 2°56.097 126.5 -999 59 6.7
2006-03-21 07:57:27 51°13.593 2°56.097 126.5 -999 120 6.9
2006-03-21 07:57:32 51°13.592 2°56.097 126.5 -999 142 6.9
2006-03-21 07:57:37 51°13.592 2°56.097 126.5 -999 26 6.7
2006-03-21 07:57:41 51°13.592 2°56.098 126.4 -999 63 6.6
2006-03-21 07:57:47 51°13.592 2°56.098 126.4 -999 30 6.7
2006-03-21 07:57:52 51°13.592 2°56.098 126.3 -999 205 6.5
2006-03-21 07:57:57 51°13.593 2°56.098 126.2 -999 284 6.5
2006-03-21 07:58:01 51°13.593 2°56.098 126.2 -999 71 6.5
2006-03-21 07:58:07 51°13.593 2°56.098 126.1 -999 130 6.7
2006-03-21 07:58:12 51°13.593 2°56.098 126.1 0.1 175 6.4
2006-03-21 07:58:17 51°13.593 2°56.098 126.1 -999 31 6.4
2006-03-21 07:58:22 51°13.593 2°56.098 126.2 -999 18 6.4
2006-03-21 07:58:27 51°13.594 2°56.098 126.2 -999 18 6.4
2006-03-21 07:58:32 51°13.594 2°56.098 126.2 -999 18 6.4
2006-03-21 07:58:37 51°13.594 2°56.098 126.2 0.1 173 6.4
2006-03-21 07:58:42 51°13.594 2°56.098 126.2 0.2 176 6.5
2006-03-21 07:58:47 51°13.594 2°56.098 126.1 0.1 171 6.4
2006-03-21 07:58:52 51°13.594 2°56.098 126.1 0.1 166 6.4
2006-03-21 07:58:57 51°13.594 2°56.098 126.1 -999 148 6.4
2006-03-21 07:59:02 51°13.594 2°56.098 126 -999 85 6.4
2006-03-21 07:59:07 51°13.594 2°56.098 125.9 -999 130 6.4
2006-03-21 07:59:12 51°13.594 2°56.098 125.8 -999 356 6.4
2006-03-21 07:59:17 51°13.594 2°56.098 125.8 -999 339 6.4
2006-03-21 07:59:21 51°13.595 2°56.098 125.8 -999 7 6.4
2006-03-21 07:59:27 51°13.595 2°56.098 125.8 -999 30 6.4
2006-03-21 07:59:31 51°13.595 2°56.098 125.8 -999 285 6.4
2006-03-21 07:59:37 51°13.595 2°56.098 125.8 -999 210 6.4
2006-03-21 07:59:41 51°13.595 2°56.098 125.9 -999 206 6.4
2006-03-21 07:59:47 51°13.595 2°56.097 125.9 -999 208 6.4
2006-03-21 07:59:52 51°13.595 2°56.097 125.9 -999 245 6.4
2006-03-21 07:59:56 51°13.595 2°56.097 125.9 -999 294 6.4
2006-03-21 08:00:01 51°13.595 2°56.097 125.9 -999 76 6.4
2006-03-21 08:00:07 51°13.595 2°56.097 125.9 -999 165 6.4
2006-03-21 08:00:12 51°13.595 2°56.097 125.9 -999 124 6.4
2006-03-21 08:00:16 51°13.595 2°56.097 125.9 -999 308 6.4
2006-03-21 08:00:21 51°13.595 2°56.097 125.9 -999 264 6.4
2006-03-21 08:00:27 51°13.595 2°56.097 125.9 -999 236 6.4
2006-03-21 08:00:32 51°13.596 2°56.097 125.9 -999 190 6.4
2006-03-21 08:00:37 51°13.596 2°56.097 125.9 -999 191 6.4
2006-03-21 08:00:41 51°13.596 2°56.097 125.9 -999 200 6.4
2006-03-21 08:00:47 51°13.596 2°56.097 125.9 -999 207 6.6
2006-03-21 08:00:51 51°13.596 2°56.097 125.9 -999 312 6.4
2006-03-21 08:00:57 51°13.596 2°56.097 125.9 -999 241 6.5
2006-03-21 08:01:02 51°13.596 2°56.097 125.9 -999 333 6.4
2006-03-21 08:01:07 51°13.596 2°56.097 125.9 -999 -999 6.7
2006-03-21 08:01:12 51°13.596 2°56.097 125.9 -999 295 6.4
2006-03-21 08:01:17 51°13.596 2°56.097 125.9 -999 121 6.5
2006-03-21 08:01:21 51°13.596 2°56.097 125.9 -999 122 6.4
2006-03-21 08:01:27 51°13.596 2°56.097 125.9 -999 123 6.4
2006-03-21 08:01:31 51°13.596 2°56.097 125.9 -999 331 6.4
2006-03-21 08:01:37 51°13.596 2°56.097 125.9 -999 238 6.4
2006-03-21 08:01:42 51°13.596 2°56.097 125.7 -999 319 6.4
2006-03-21 08:01:47 51°13.596 2°56.097 125.7 -999 322 6.4
2006-03-21 08:01:52 51°13.596 2°56.097 125.7 -999 219 6.4
2006-03-21 08:01:57 51°13.596 2°56.096 125.7 -999 238 6.4
2006-03-21 08:02:01 51°13.596 2°56.096 125.7 0.1 222 6.4
2006-03-21 08:02:07 51°13.596 2°56.096 125.7 -999 245 6.4
2006-03-21 08:02:12 51°13.596 2°56.096 125.7 -999 309 6.4
2006-03-21 08:02:17 51°13.596 2°56.096 125.8 -999 183 6.4
2006-03-21 08:02:22 51°13.596 2°56.096 125.5 -999 163 6.5
2006-03-21 08:02:27 51°13.596 2°56.097 124.8 -999 167 6.4
2006-03-21 08:02:32 51°13.596 2°56.097 123.9 0.1 178 6.6
2006-03-21 08:02:37 51°13.596 2°56.097 122.5 0.1 176 6.9
2006-03-21 08:02:42 51°13.596 2°56.096 121.2 0.1 197 6.8
2006-03-21 08:02:47 51°13.596 2°56.096 119.7 -999 213 7.1
2006-03-21 08:02:52 51°13.596 2°56.096 118.5 -999 221 7.1
2006-03-21 08:02:57 51°13.596 2°56.096 117.1 0.1 182 7.7
2006-03-21 08:03:02 51°13.596 2°56.096 115.7 0.1 184 -999
2006-03-21 08:03:07 51°13.596 2°56.096 114.4 0.2 266 7.4
2006-03-21 08:03:12 51°13.596 2°56.095 113.3 0.3 281 7.9
2006-03-21 08:03:17 51°13.596 2°56.093 112.8 0.7 285 7.7
2006-03-21 08:03:21 51°13.597 2°56.091 112.5 0.9 289 7.8
2006-03-21 08:03:27 51°13.597 2°56.088 112.5 1.2 289 7.8
2006-03-21 08:03:31 51°13.598 2°56.086 112.5 1.3 292 7.9
2006-03-21 08:03:37 51°13.599 2°56.082 112.8 1.5 291 7.9
2006-03-21 08:03:41 51°13.6 2°56.079 113.2 1.7 292 5.7
2006-03-21 08:03:47 51°13.601 2°56.075 113.7 1.9 292 -999
2006-03-21 08:03:52 51°13.602 2°56.071 113.9 2 293 -999
2006-03-21 08:03:58 51°13.604 2°56.065 114.2 2.1 292 -999
2006-03-21 08:04:02 51°13.605 2°56.062 114.5 2.2 293 -999
2006-03-21 08:04:07 51°13.606 2°56.057 114.6 2.3 294 -999
2006-03-21 08:04:12 51°13.607 2°56.052 115 2.5 292 -999
2006-03-21 08:04:17 51°13.608 2°56.046 115.3 2.6 292 -999
2006-03-21 08:04:22 51°13.61 2°56.041 115.7 2.7 293 -999
2006-03-21 08:04:28 51°13.611 2°56.034 116.1 2.8 293 -999
2006-03-21 08:04:32 51°13.613 2°56.029 116.6 2.9 294 -999
2006-03-21 08:04:37 51°13.615 2°56.023 116.9 3.1 294 -999
2006-03-21 08:04:42 51°13.617 2°56.016 117.3 3.2 294 -999
2006-03-21 08:04:47 51°13.619 2°56.01 117.5 3.4 294 -999
2006-03-21 08:04:52 51°13.621 2°56.003 117.7 3.5 294 -999
2006-03-21 08:04:57 51°13.623 2°55.995 117.7 3.6 295 -999
2006-03-21 08:05:02 51°13.625 2°55.988 117.5 3.7 294 -999
2006-03-21 08:05:08 51°13.627 2°55.979 117.5 3.7 294 -999
2006-03-21 08:05:12 51°13.629 2°55.972 117.5 3.9 293 -999
2006-03-21 08:05:17 51°13.631 2°55.964 117.8 4 294 -999
2006-03-21 08:05:22 51°13.633 2°55.956 118.4 4 293 -999
2006-03-21 08:05:28 51°13.636 2°55.946 119.2 4.1 294 -999
2006-03-21 08:05:32 51°13.638 2°55.939 119.9 4.2 295 -999
2006-03-21 08:05:37 51°13.641 2°55.931 120.8 4.2 295 -999
2006-03-21 08:05:42 51°13.643 2°55.923 121.7 4.2 296 -999
2006-03-21 08:05:47 51°13.646 2°55.914 122.6 4.2 296 -999
2006-03-21 08:05:52 51°13.649 2°55.906 123.7 4.3 298 -999
2006-03-21 08:05:57 51°13.652 2°55.898 124.8 4.3 299 -999
2006-03-21 08:06:02 51°13.654 2°55.889 125.9 4.3 300 -999
2006-03-21 08:06:07 51°13.657 2°55.881 126.8 4.2 300 -999
2006-03-21 08:06:12 51°13.66 2°55.874 127.8 4.2 300 -999
2006-03-21 08:06:18 51°13.664 2°55.864 128.9 4.2 302 -999
2006-03-21 08:06:22 51°13.667 2°55.857 129.9 4.4 304 -999
2006-03-21 08:06:28 51°13.672 2°55.847 131 4.6 304 -999
2006-03-21 08:06:32 51°13.675 2°55.841 131.9 4.7 306 -999
2006-03-21 08:06:37 51°13.679 2°55.832 132.8 5 307 -999
2006-03-21 08:06:42 51°13.683 2°55.823 133.3 5.1 307 -999
2006-03-21 08:06:48 51°13.689 2°55.812 133.7 5.2 308 -999
2006-03-21 08:06:52 51°13.692 2°55.805 134.2 5.1 309 -999
2006-03-21 08:06:57 51°13.696 2°55.797 134.6 4.9 308 -999
2006-03-21 08:07:02 51°13.7 2°55.788 134.7 4.7 308 -999
2006-03-21 08:07:08 51°13.705 2°55.779 134.7 4.7 308 -999
2006-03-21 08:07:12 51°13.708 2°55.772 134.5 4.7 308 -999
2006-03-21 08:07:17 51°13.712 2°55.764 134.3 4.5 307 -999
2006-03-21 08:07:22 51°13.715 2°55.757 134.4 4.3 307 -999
2006-03-21 08:07:27 51°13.719 2°55.75 135.4 3.9 307 -999
2006-03-21 08:07:32 51°13.721 2°55.744 136 3.3 305 -999
2006-03-21 08:07:37 51°13.723 2°55.74 136.1 2.8 306 -999
2006-03-21 08:07:42 51°13.725 2°55.736 136 2.1 303 -999
2006-03-21 08:07:47 51°13.726 2°55.733 135.5 1.5 301 -999
2006-03-21 08:07:52 51°13.726 2°55.732 133.3 0.8 293 -999
2006-03-21 08:07:57 51°13.726 2°55.731 130.8 0.4 288 -999
2006-03-21 08:08:02 51°13.726 2°55.731 127.6 0.2 187 -999
2006-03-21 08:08:07 51°13.725 2°55.732 123.5 0.6 121 -999
2006-03-21 08:08:12 51°13.725 2°55.734 118.5 1 118 -999
2006-03-21 08:08:17 51°13.724 2°55.737 112.8 1.2 109 -999
2006-03-21 08:08:22 51°13.724 2°55.74 108.2 1.5 103 -999
2006-03-21 08:08:27 51°13.724 2°55.743 102.8 1.5 99 4.9
2006-03-21 08:08:32 51°13.723 2°55.746 99 1.4 93 -999
2006-03-21 08:08:37 51°13.724 2°55.748 96 1.1 88 4.8
2006-03-21 08:08:42 51°13.724 2°55.75 93.2 0.9 86 -999
2006-03-21 08:08:47 51°13.723 2°55.75 90.3 0.4 81 -999
2006-03-21 08:08:52 51°13.723 2°55.75 86.9 0.1 313 -999
2006-03-21 08:08:57 51°13.723 2°55.749 84.8 0.4 280 -999
2006-03-21 08:09:02 51°13.723 2°55.747 83.3 0.8 259 -999
2006-03-21 08:09:08 51°13.723 2°55.745 82 1 261 -999
2006-03-21 08:09:12 51°13.722 2°55.742 81.2 1.3 262 -999
2006-03-21 08:09:17 51°13.722 2°55.739 80.6 1.6 258 -999
2006-03-21 08:09:22 51°13.721 2°55.734 80.3 1.8 258 -999
2006-03-21 08:09:28 51°13.721 2°55.73 80.2 1.9 258 -999
2006-03-21 08:09:32 51°13.721 2°55.726 80.3 1.8 261 -999
2006-03-21 08:09:37 51°13.72 2°55.723 80.6 1.6 260 -999
2006-03-21 08:09:42 51°13.72 2°55.72 80.5 1.4 262 -999
2006-03-21 08:09:47 51°13.72 2°55.718 79.1 1 261 -999
2006-03-21 08:09:53 51°13.72 2°55.716 76.7 0.6 268 -999
2006-03-21 08:09:57 51°13.72 2°55.716 73.5 0.3 284 -999
2006-03-21 08:10:02 51°13.72 2°55.716 69.8 0.2 318 -999
2006-03-21 08:10:07 51°13.721 2°55.716 65.8 0.3 15 -999
2006-03-21 08:10:12 51°13.721 2°55.717 61.5 0.6 28 -999
2006-03-21 08:10:17 51°13.722 2°55.718 56.6 0.8 32 -999
2006-03-21 08:10:22 51°13.724 2°55.719 51.8 1 32 -999
2006-03-21 08:10:27 51°13.725 2°55.72 47.9 1.2 29 -999
2006-03-21 08:10:32 51°13.727 2°55.721 43.2 1.1 24 -999
2006-03-21 08:10:37 51°13.728 2°55.722 39.7 1 24 -999
2006-03-21 08:10:42 51°13.729 2°55.722 37.7 0.7 15 -999
2006-03-21 08:10:47 51°13.73 2°55.722 35.3 0.5 4 4.7
2006-03-21 08:10:52 51°13.73 2°55.721 33 0.2 298 -999
2006-03-21 08:10:57 51°13.729 2°55.72 31.4 0.5 229 -999
2006-03-21 08:11:02 51°13.728 2°55.719 29.6 0.8 222 -999
2006-03-21 08:11:07 51°13.727 2°55.717 28.3 1.3 215 4.6
2006-03-21 08:11:12 51°13.725 2°55.715 27.3 1.5 212 5.6
2006-03-21 08:11:17 51°13.723 2°55.713 26.5 1.5 214 -999
2006-03-21 08:11:22 51°13.721 2°55.712 26.2 1.5 213 -999
2006-03-21 08:11:27 51°13.72 2°55.71 25.9 1.1 220 -999
2006-03-21 08:11:32 51°13.72 2°55.709 24.6 0.7 231 -999
2006-03-21 08:11:37 51°13.72 2°55.708 21.7 0.5 256 -999
2006-03-21 08:11:42 51°13.72 2°55.707 17.8 0.5 318 -999
2006-03-21 08:11:47 51°13.721 2°55.707 13 0.8 336 -999
2006-03-21 08:11:52 51°13.723 2°55.706 8 1.1 343 -999
2006-03-21 08:11:57 51°13.725 2°55.705 3.7 1.5 342 -999
2006-03-21 08:12:02 51°13.727 2°55.704 358.4 1.7 342 -999
2006-03-21 08:12:08 51°13.731 2°55.701 353.1 2.5 340 -999
2006-03-21 08:12:12 51°13.735 2°55.699 347.6 3.1 336 -999
2006-03-21 08:12:17 51°13.739 2°55.696 345.1 3.6 336 -999
2006-03-21 08:12:22 51°13.744 2°55.692 343.1 3.8 333 -999
2006-03-21 08:12:27 51°13.75 2°55.688 342.5 4.2 336 4.7
2006-03-21 08:12:32 51°13.756 2°55.683 341.9 4.8 333 4.8
2006-03-21 08:12:37 51°13.763 2°55.678 341.8 5.1 336 -999
2006-03-21 08:12:42 51°13.77 2°55.673 341.8 5.6 334 -999
2006-03-21 08:12:47 51°13.777 2°55.668 341.6 5.9 336 -999
2006-03-21 08:12:52 51°13.785 2°55.662 341.6 6.2 335 -999
2006-03-21 08:12:57 51°13.794 2°55.656 341.8 6.7 337 -999
2006-03-21 08:13:02 51°13.803 2°55.649 341.8 6.9 336 -999
2006-03-21 08:13:07 51°13.812 2°55.643 341.5 7.2 337 -999
2006-03-21 08:13:12 51°13.821 2°55.637 341.5 7.4 337 -999
2006-03-21 08:13:17 51°13.831 2°55.63 341.8 7.6 337 -999
2006-03-21 08:13:22 51°13.841 2°55.623 341.1 7.7 336 -999
2006-03-21 08:13:28 51°13.853 2°55.614 340.4 7.9 335 -999
2006-03-21 08:13:32 51°13.861 2°55.608 339.8 8 335 -999
2006-03-21 08:13:37 51°13.871 2°55.6 339.9 8.2 335 -999
2006-03-21 08:13:42 51°13.881 2°55.593 340.4 8.3 335 -999
2006-03-21 08:13:47 51°13.892 2°55.585 340.6 8.4 335 -999
2006-03-21 08:13:52 51°13.903 2°55.577 340.7 8.5 335 -999
2006-03-21 08:13:57 51°13.914 2°55.569 340.7 8.6 336 -999
2006-03-21 08:14:02 51°13.925 2°55.561 341.2 8.6 336 -999
2006-03-21 08:14:08 51°13.938 2°55.552 341.4 8.7 336 -999
2006-03-21 08:14:12 51°13.947 2°55.546 341.4 8.6 336 9.7
2006-03-21 08:14:17 51°13.957 2°55.537 341 8.7 334 -999
2006-03-21 08:14:22 51°13.968 2°55.529 340.9 8.7 334 -999
2006-03-21 08:14:27 51°13.979 2°55.521 341 8.8 334 -999
2006-03-21 08:14:32 51°13.99 2°55.512 341.3 8.8 335 -999
2006-03-21 08:14:37 51°14.001 2°55.505 342.2 8.8 337 -999
2006-03-21 08:14:42 51°14.013 2°55.498 343.3 8.8 338 9.4
2006-03-21 08:14:47 51°14.024 2°55.491 343.3 8.6 338 -999
2006-03-21 08:14:52 51°14.035 2°55.484 342.6 8.4 338 -999
2006-03-21 08:14:57 51°14.045 2°55.477 342.5 8.1 337 -999
2006-03-21 08:15:02 51°14.055 2°55.47 342.4 7.9 337 -999
2006-03-21 08:15:07 51°14.065 2°55.463 342.2 7.8 336 9.4
2006-03-21 08:15:13 51°14.076 2°55.455 342.2 7.7 336 -999
2006-03-21 08:15:17 51°14.084 2°55.45 342.3 7.8 336 -999
2006-03-21 08:15:22 51°14.095 2°55.442 341.8 8.1 336 9.4
2006-03-21 08:15:27 51°14.105 2°55.434 340.9 8.2 335 9.3
2006-03-21 08:15:32 51°14.116 2°55.426 340.4 8.4 334 -999
2006-03-21 08:15:37 51°14.126 2°55.418 340.3 8.6 334 -999
2006-03-21 08:15:42 51°14.137 2°55.409 339.1 8.7 333 -999
2006-03-21 08:15:47 51°14.148 2°55.4 338.1 8.8 332 9.3
2006-03-21 08:15:52 51°14.159 2°55.391 336.9 8.9 331 9.3
2006-03-21 08:15:57 51°14.169 2°55.38 335.6 9 329 -999
2006-03-21 08:16:02 51°14.18 2°55.37 334.4 9 328 -999
2006-03-21 08:16:07 51°14.19 2°55.359 333.3 9.1 327 9.2
2006-03-21 08:16:12 51°14.201 2°55.348 332.2 9.1 326 -999
2006-03-21 08:16:17 51°14.211 2°55.336 330.3 9.2 324 -999
2006-03-21 08:16:23 51°14.223 2°55.32 328.4 9.2 322 -999
2006-03-21 08:16:27 51°14.231 2°55.31 326.4 9.3 320 9.2
2006-03-21 08:16:32 51°14.24 2°55.296 324.2 9.3 317 -999
2006-03-21 08:16:37 51°14.25 2°55.281 321.9 9.3 316 -999
2006-03-21 08:16:42 51°14.258 2°55.266 319.4 9.3 314 -999
2006-03-21 08:16:47 51°14.267 2°55.251 317.6 9.3 312 -999
2006-03-21 08:16:52 51°14.275 2°55.235 316.4 9.3 310 -999
2006-03-21 08:16:57 51°14.283 2°55.22 315 9.1 310 -999
2006-03-21 08:17:02 51°14.29 2°55.205 313.2 8.9 308 -999
2006-03-21 08:17:07 51°14.297 2°55.19 312.4 8.5 307 9.9
2006-03-21 08:17:12 51°14.304 2°55.175 311.5 8.4 306 9.7
2006-03-21 08:17:17 51°14.311 2°55.161 311.2 8.1 306 -999
2006-03-21 08:17:22 51°14.317 2°55.146 311.2 8 306 -999
2006-03-21 08:17:27 51°14.324 2°55.132 311.5 7.8 306 9.5
2006-03-21 08:17:32 51°14.33 2°55.119 312.3 7.7 308 9.6
2006-03-21 08:17:37 51°14.337 2°55.106 313.5 7.6 309 -999
2006-03-21 08:17:42 51°14.343 2°55.093 315 7.5 309 -999
2006-03-21 08:17:47 51°14.35 2°55.081 315.8 7.4 309 10.1
2006-03-21 08:17:52 51°14.357 2°55.068 316.7 7.3 311 10.2
2006-03-21 08:17:57 51°14.364 2°55.056 317.2 7.2 310 9.4
2006-03-21 08:18:02 51°14.37 2°55.044 317.9 7.2 311 9.4
2006-03-21 08:18:07 51°14.377 2°55.032 318.4 7.4 311 9.3
2006-03-21 08:18:11 51°14.383 2°55.021 318.8 7.8 312 9.7
2006-03-21 08:18:17 51°14.392 2°55.005 320 8.2 312 9.7
2006-03-21 08:18:22 51°14.4 2°54.991 320.7 8.5 312 9.5
2006-03-21 08:18:27 51°14.408 2°54.976 321.2 8.7 311 9.8
2006-03-21 08:18:32 51°14.417 2°54.961 322.6 9 313 9.2
2006-03-21 08:18:37 51°14.426 2°54.946 324.3 9.3 314 9.1
2006-03-21 08:18:41 51°14.434 2°54.935 326.7 9.5 317 9.6
2006-03-21 08:18:47 51°14.446 2°54.918 329.7 9.7 318 9.6
2006-03-21 08:18:52 51°14.456 2°54.904 331.4 9.9 319 9.5
2006-03-21 08:18:57 51°14.467 2°54.889 332.8 10.1 320 9.4
2006-03-21 08:19:02 51°14.478 2°54.875 334.5 10.2 321 9.1
2006-03-21 08:19:07 51°14.49 2°54.86 335.3 10.5 321 9.2
2006-03-21 08:19:12 51°14.502 2°54.846 335.8 10.7 322 9.2
2006-03-21 08:19:17 51°14.514 2°54.831 336.3 10.9 323 8.9
2006-03-21 08:19:21 51°14.524 2°54.82 336.5 11.1 323 8.9
2006-03-21 08:19:27 51°14.539 2°54.802 336.4 11.3 323 8.9
2006-03-21 08:19:32 51°14.551 2°54.786 336.4 11.4 323 8.7
2006-03-21 08:19:37 51°14.565 2°54.771 336.1 11.6 323 8.7
2006-03-21 08:19:41 51°14.575 2°54.759 336.4 11.8 324 8.8
2006-03-21 08:19:47 51°14.591 2°54.741 336.6 11.9 324 8.8
2006-03-21 08:19:51 51°14.602 2°54.728 336.7 12 324 8.5
2006-03-21 08:19:57 51°14.618 2°54.709 336.7 12 324 8.5
2006-03-21 08:20:02 51°14.632 2°54.693 336.5 12 324 8.5
2006-03-21 08:20:07 51°14.645 2°54.678 336.5 12.1 324 8.6
2006-03-21 08:20:12 51°14.66 2°54.662 336.7 12.1 325 8.6
2006-03-21 08:20:17 51°14.673 2°54.647 337 12.3 325 8.6
2006-03-21 08:20:22 51°14.687 2°54.631 337.2 12.3 325 8.3
2006-03-21 08:20:27 51°14.701 2°54.615 336.8 12.3 324 8.5
2006-03-21 08:20:32 51°14.715 2°54.599 336.7 12.4 324 8.6
2006-03-21 08:20:37 51°14.729 2°54.583 336.7 12.4 325 8.5
2006-03-21 08:20:41 51°14.74 2°54.57 336.5 12.4 325 8.7
2006-03-21 08:20:47 51°14.757 2°54.552 336.5 12.5 325 8.6
2006-03-21 08:20:52 51°14.772 2°54.535 336.7 12.5 325 8.6
2006-03-21 08:20:57 51°14.786 2°54.52 336.3 12.4 325 8.5
2006-03-21 08:21:01 51°14.797 2°54.506 336 12.3 324 8.5
2006-03-21 08:21:07 51°14.813 2°54.487 335.9 12.4 324 8.7
2006-03-21 08:21:12 51°14.827 2°54.471 335.3 12.4 324 8.4
2006-03-21 08:21:17 51°14.841 2°54.454 335.3 12.4 324 8.2
2006-03-21 08:21:21 51°14.853 2°54.441 335.7 12.4 324 8.8
2006-03-21 08:21:27 51°14.87 2°54.422 335.6 12.5 324 8.7
2006-03-21 08:21:32 51°14.884 2°54.406 336.2 12.4 325 8.7
2006-03-21 08:21:37 51°14.898 2°54.39 336.2 12.4 324 8.6
2006-03-21 08:21:41 51°14.909 2°54.378 336.4 12.4 325 8.4
2006-03-21 08:21:47 51°14.926 2°54.359 336.2 12.4 325 8.3
2006-03-21 08:21:52 51°14.941 2°54.343 336.6 12.4 325 8.2
2006-03-21 08:21:57 51°14.955 2°54.328 336.9 12.4 326 8
2006-03-21 08:22:01 51°14.966 2°54.316 337.1 12.4 326 7.9
2006-03-21 08:22:07 51°14.983 2°54.297 336.5 12.4 326 7.9
2006-03-21 08:22:11 51°14.995 2°54.285 336.5 12.4 326 7.8
2006-03-21 08:22:17 51°15.011 2°54.267 337 12.4 326 7.8
2006-03-21 08:22:21 51°15.023 2°54.254 336.6 12.3 326 7.8
2006-03-21 08:22:27 51°15.04 2°54.235 336.9 12.4 325 7.9
2006-03-21 08:22:32 51°15.053 2°54.22 336.5 12.5 325 8
2006-03-21 08:22:37 51°15.067 2°54.203 335.9 12.3 323 7.9
2006-03-21 08:22:42 51°15.082 2°54.187 335.4 12.4 324 8
2006-03-21 08:22:47 51°15.095 2°54.171 335.1 12.5 323 8
2006-03-21 08:22:51 51°15.106 2°54.158 334.6 12.5 324 8
2006-03-21 08:22:57 51°15.123 2°54.137 335 12.5 323 8
2006-03-21 08:23:02 51°15.138 2°54.122 335.6 12.4 325 8.1
2006-03-21 08:23:07 51°15.152 2°54.106 336.8 12.5 326 8.2
2006-03-21 08:23:12 51°15.167 2°54.091 338.2 12.5 326 8.2
2006-03-21 08:23:17 51°15.181 2°54.077 339.4 12.5 328 8.2
2006-03-21 08:23:21 51°15.193 2°54.065 340.2 12.4 329 8.4
2006-03-21 08:23:27 51°15.211 2°54.049 340.6 12.5 329 8.5
2006-03-21 08:23:32 51°15.226 2°54.035 341.4 12.4 329 8.5
2006-03-21 08:23:37 51°15.24 2°54.021 341.5 12.5 329 8.7
2006-03-21 08:23:42 51°15.255 2°54.007 341.3 12.5 329 8.8
2006-03-21 08:23:46 51°15.267 2°53.995 341.1 12.4 329 8.8
2006-03-21 08:23:52 51°15.285 2°53.978 341 12.4 329 8.7
2006-03-21 08:23:57 51°15.3 2°53.963 341 12.4 328 9.1
2006-03-21 08:24:01 51°15.312 2°53.951 340.3 12.4 328 9
2006-03-21 08:24:07 51°15.33 2°53.934 340.4 12.3 328 9
2006-03-21 08:24:12 51°15.344 2°53.921 340.7 12.4 328 9.1
2006-03-21 08:24:17 51°15.359 2°53.905 340.8 12.4 328 9.2
2006-03-21 08:24:22 51°15.373 2°53.891 340.4 12.3 328 9.2
2006-03-21 08:24:27 51°15.388 2°53.876 340.1 12.4 328 9.3
2006-03-21 08:24:32 51°15.402 2°53.862 340.2 12.5 328 9.3
2006-03-21 08:24:37 51°15.416 2°53.847 340.4 12.2 327 8.9
2006-03-21 08:24:42 51°15.431 2°53.832 340.7 12.2 328 9.3
2006-03-21 08:24:47 51°15.445 2°53.818 340.1 12.4 327 9.4
2006-03-21 08:24:52 51°15.46 2°53.803 339.7 12.3 327 9.5
2006-03-21 08:24:57 51°15.474 2°53.788 339.8 12.5 327 9.7
2006-03-21 08:25:02 51°15.489 2°53.774 339.7 12.4 327 9.6
2006-03-21 08:25:07 51°15.503 2°53.758 339.5 12.4 326 9.4
2006-03-21 08:25:11 51°15.515 2°53.747 339.1 12.4 328 9.6
2006-03-21 08:25:17 51°15.532 2°53.728 339.5 12.6 327 9.5
2006-03-21 08:25:21 51°15.544 2°53.717 340.1 12.5 328 9.7
2006-03-21 08:25:27 51°15.562 2°53.699 340.6 12.4 328 9.6
2006-03-21 08:25:32 51°15.576 2°53.685 340.7 12.5 329 9.7
2006-03-21 08:25:37 51°15.591 2°53.671 340.8 12.5 328 9.7
2006-03-21 08:25:41 51°15.603 2°53.659 340.6 12.6 328 9.6
2006-03-21 08:25:47 51°15.62 2°53.642 340.4 12.5 328 9.7
2006-03-21 08:25:52 51°15.636 2°53.626 340 12.5 327 9.7
2006-03-21 08:25:57 51°15.65 2°53.611 339.9 12.5 328 10
2006-03-21 08:26:01 51°15.662 2°53.599 339.6 12.5 327 10
2006-03-21 08:26:07 51°15.678 2°53.582 340 12.3 328 9.7
2006-03-21 08:26:12 51°15.693 2°53.566 340.2 12.2 326 10.1
2006-03-21 08:26:17 51°15.707 2°53.552 339.7 12.4 326 10.1
2006-03-21 08:26:21 51°15.718 2°53.54 339.5 12.4 327 10
2006-03-21 08:26:27 51°15.736 2°53.522 339.5 12.4 327 10.2
2006-03-21 08:26:32 51°15.75 2°53.506 339.5 12.5 327 10.3
2006-03-21 08:26:37 51°15.765 2°53.492 339.6 12.5 327 10.3
2006-03-21 08:26:42 51°15.78 2°53.476 339.8 12.4 327 10.5
2006-03-21 08:26:47 51°15.794 2°53.461 340.2 12.6 327 10.6
2006-03-21 08:26:52 51°15.808 2°53.447 339.9 12.4 328 10.4
2006-03-21 08:26:57 51°15.824 2°53.432 340 12.5 328 10.5
2006-03-21 08:27:01 51°15.835 2°53.42 340 12.4 327 10.4
2006-03-21 08:27:07 51°15.853 2°53.4 339.6 12.5 326 10.7
2006-03-21 08:27:12 51°15.866 2°53.387 339.6 12.3 326 10.6
2006-03-21 08:27:17 51°15.881 2°53.371 338.9 12.5 326 10.6
2006-03-21 08:27:22 51°15.895 2°53.357 339 12.6 327 10.7
2006-03-21 08:27:27 51°15.91 2°53.34 339.8 12.4 327 10.6
2006-03-21 08:27:32 51°15.924 2°53.326 339.3 12.4 327 10.8
2006-03-21 08:27:37 51°15.939 2°53.312 339.8 12.5 327 10.8
2006-03-21 08:27:42 51°15.953 2°53.298 340.2 12.5 328 10.6
2006-03-21 08:27:47 51°15.968 2°53.283 340.8 12.3 328 10.7
2006-03-21 08:27:52 51°15.982 2°53.269 341 12.3 329 10.8
2006-03-21 08:27:56 51°15.994 2°53.258 341.7 12.3 330 10.8
2006-03-21 08:28:02 51°16.013 2°53.241 341.8 12.4 329 11
2006-03-21 08:28:07 51°16.027 2°53.227 341.7 12.4 330 11
2006-03-21 08:28:12 51°16.043 2°53.213 342 12.4 330 11
2006-03-21 08:28:17 51°16.058 2°53.199 341.8 12.4 330 11.3
2006-03-21 08:28:21 51°16.069 2°53.189 341.8 12.5 330 11
2006-03-21 08:28:27 51°16.087 2°53.171 341.6 12.4 329 10.8
2006-03-21 08:28:32 51°16.102 2°53.157 341.8 12.3 330 11.1
2006-03-21 08:28:37 51°16.117 2°53.142 341.1 12.4 328 10.8
2006-03-21 08:28:42 51°16.132 2°53.129 341.1 12.1 330 11
2006-03-21 08:28:46 51°16.143 2°53.118 341.6 12.3 329 10.9
2006-03-21 08:28:51 51°16.158 2°53.104 341.8 12.3 330 11
2006-03-21 08:28:57 51°16.175 2°53.09 342.7 12.3 332 10.9
2006-03-21 08:29:02 51°16.191 2°53.076 343.7 12.1 332 11.3
2006-03-21 08:29:07 51°16.205 2°53.064 344.3 12.2 333 11
2006-03-21 08:29:12 51°16.221 2°53.052 344.4 12.2 333 11.4
2006-03-21 08:29:17 51°16.236 2°53.041 345 12.3 334 11.1
2006-03-21 08:29:21 51°16.248 2°53.031 345.4 12.4 334 11
2006-03-21 08:29:27 51°16.266 2°53.017 345.9 12.3 335 10.9
2006-03-21 08:29:32 51°16.282 2°53.005 346 12.3 334 11.2
2006-03-21 08:29:37 51°16.298 2°52.993 345.8 12.4 334 11.4
2006-03-21 08:29:42 51°16.313 2°52.982 345.4 12.3 334 11.1
2006-03-21 08:29:47 51°16.329 2°52.97 345.7 12.5 334 11
2006-03-21 08:29:51 51°16.341 2°52.96 345.6 12.5 334 11.2
2006-03-21 08:29:57 51°16.359 2°52.945 346 12.3 333 10.9
2006-03-21 08:30:01 51°16.371 2°52.935 345.4 12.3 333 11.3
2006-03-21 08:30:07 51°16.39 2°52.921 345.1 12.3 333 11.3
2006-03-21 08:30:12 51°16.404 2°52.908 345.4 12.4 334 10.9
2006-03-21 08:30:17 51°16.42 2°52.896 344.8 12.4 333 11.3
2006-03-21 08:30:22 51°16.435 2°52.884 344.6 12.5 334 11
2006-03-21 08:30:27 51°16.451 2°52.871 345.1 12.4 334 11.2
2006-03-21 08:30:32 51°16.466 2°52.859 345.3 12.4 333 11
2006-03-21 08:30:37 51°16.482 2°52.847 344.9 12.6 333 11.2
2006-03-21 08:30:42 51°16.497 2°52.836 345.5 12.5 335 11
2006-03-21 08:30:47 51°16.514 2°52.824 346.2 12.5 335 11.1
2006-03-21 08:30:52 51°16.53 2°52.812 346.1 12.6 334 11
2006-03-21 08:30:57 51°16.545 2°52.8 345.7 12.4 334 10.9
2006-03-21 08:31:01 51°16.557 2°52.79 345.4 12.3 334 11
2006-03-21 08:31:07 51°16.576 2°52.776 345.5 12.3 334 10.8
2006-03-21 08:31:11 51°16.588 2°52.767 346.4 12.3 336 11
2006-03-21 08:31:17 51°16.606 2°52.756 348.2 12.3 337 10.7
2006-03-21 08:31:22 51°16.622 2°52.746 348.3 12.3 338 10.6
2006-03-21 08:31:27 51°16.638 2°52.736 349.3 12.2 338 10.6
2006-03-21 08:31:32 51°16.655 2°52.725 349.5 12.1 338 10.3
2006-03-21 08:31:37 51°16.67 2°52.716 349.9 12.2 339 10.3
2006-03-21 08:31:42 51°16.686 2°52.707 350 12.2 339 10.3
2006-03-21 08:31:47 51°16.701 2°52.697 350.4 12.4 339 10.1
2006-03-21 08:31:51 51°16.714 2°52.689 350.4 12.3 339 9.7
2006-03-21 08:31:57 51°16.733 2°52.678 350.2 12.4 339 9.5
2006-03-21 08:32:02 51°16.75 2°52.669 350.2 12.4 340 9.1
2006-03-21 08:32:07 51°16.766 2°52.66 350.4 12.4 341 9.1
2006-03-21 08:32:12 51°16.782 2°52.651 350.7 12.4 341 9.2
2006-03-21 08:32:17 51°16.799 2°52.642 351.1 12.4 342 9.2
2006-03-21 08:32:22 51°16.815 2°52.633 351.9 12.4 342 9.1
2006-03-21 08:32:27 51°16.831 2°52.625 351.5 12.5 341 8.9
2006-03-21 08:32:32 51°16.848 2°52.615 350.9 12.5 341 8.9
2006-03-21 08:32:37 51°16.864 2°52.606 350.7 12.5 341 8.9
2006-03-21 08:32:41 51°16.877 2°52.599 350.8 12.4 341 9
2006-03-21 08:32:47 51°16.896 2°52.588 350.9 12.4 341 9.1
2006-03-21 08:32:52 51°16.913 2°52.579 350.8 12.4 342 9.1
2006-03-21 08:32:57 51°16.93 2°52.572 352.1 12.5 343 9.3
2006-03-21 08:33:01 51°16.944 2°52.566 353.6 12.6 344 9.2
2006-03-21 08:33:07 51°16.964 2°52.557 354.3 12.4 345 9.3
2006-03-21 08:33:12 51°16.98 2°52.551 355 12.3 346 9.1
2006-03-21 08:33:17 51°16.997 2°52.543 356.1 12.3 345 9.1
2006-03-21 08:33:21 51°17.01 2°52.538 356 12.2 346 8.9
2006-03-21 08:33:27 51°17.028 2°52.53 355.9 12.2 345 8.9
2006-03-21 08:33:32 51°17.045 2°52.524 356.3 12.1 346 9
2006-03-21 08:33:37 51°17.061 2°52.518 356.5 12.2 346 9
2006-03-21 08:33:42 51°17.077 2°52.511 356.6 12.2 346 9
2006-03-21 08:33:47 51°17.094 2°52.505 356.5 12.3 346 9
2006-03-21 08:33:51 51°17.107 2°52.499 356.6 12.1 346 8.9
2006-03-21 08:33:57 51°17.127 2°52.491 356.3 12.2 346 9.2
2006-03-21 08:34:02 51°17.143 2°52.485 356.5 12.2 345 9.1
2006-03-21 08:34:07 51°17.16 2°52.477 356.2 12.4 345 9.1
2006-03-21 08:34:12 51°17.177 2°52.471 355.9 12.4 346 9.2
2006-03-21 08:34:17 51°17.193 2°52.464 356 12.3 345 9.2
2006-03-21 08:34:22 51°17.209 2°52.458 356.2 12.2 347 9
2006-03-21 08:34:27 51°17.226 2°52.451 356.7 12.1 346 9.3
2006-03-21 08:34:32 51°17.242 2°52.445 356.5 12.3 346 9.4
2006-03-21 08:34:37 51°17.258 2°52.44 357.5 12.2 348 9.4
2006-03-21 08:34:42 51°17.276 2°52.434 358 12 347 9.5
2006-03-21 08:34:47 51°17.292 2°52.428 359.2 12 348 9.5
2006-03-21 08:34:52 51°17.308 2°52.424 359.1 12 348 9.7
2006-03-21 08:34:57 51°17.324 2°52.419 359.6 12.2 350 9.6
2006-03-21 08:35:01 51°17.338 2°52.416 0.3 12.1 351 9.5
2006-03-21 08:35:07 51°17.358 2°52.412 2 12.1 353 9.6
2006-03-21 08:35:12 51°17.374 2°52.41 3.7 12.2 355 9.7
2006-03-21 08:35:17 51°17.392 2°52.408 4.5 12 356 9.7
2006-03-21 08:35:21 51°17.405 2°52.406 5.2 12.1 355 9.8
2006-03-21 08:35:27 51°17.425 2°52.404 5.8 12.2 356 9.7
2006-03-21 08:35:32 51°17.441 2°52.402 6.4 12.2 356 9.7
2006-03-21 08:35:37 51°17.459 2°52.401 6.5 12.1 357 9.7
2006-03-21 08:35:41 51°17.472 2°52.399 6.5 12.1 356 9.7
2006-03-21 08:35:47 51°17.492 2°52.398 6.5 12.1 358 9.6
2006-03-21 08:35:52 51°17.509 2°52.396 7.1 12.1 357 9.6
2006-03-21 08:35:57 51°17.526 2°52.395 7 12.1 357 9.7
2006-03-21 08:36:01 51°17.54 2°52.393 7.1 12.2 356 9.7
2006-03-21 08:36:07 51°17.558 2°52.391 6.7 12.1 356 9.5
2006-03-21 08:36:12 51°17.576 2°52.39 6.6 12 356 9.7
2006-03-21 08:36:16 51°17.589 2°52.388 6.4 11.9 356 9.5
2006-03-21 08:36:22 51°17.609 2°52.386 5.7 11.9 355 9.7
2006-03-21 08:36:27 51°17.626 2°52.386 6.4 11.9 359 9.7
2006-03-21 08:36:32 51°17.643 2°52.385 8.2 11.9 359 9.7
2006-03-21 08:36:37 51°17.658 2°52.385 9.4 12 1 9.6
2006-03-21 08:36:42 51°17.676 2°52.386 10.6 11.9 1 9.7
2006-03-21 08:36:47 51°17.691 2°52.387 11.6 11.9 2 9.6
2006-03-21 08:36:52 51°17.708 2°52.388 11.8 11.8 2 9.5
2006-03-21 08:36:57 51°17.725 2°52.39 12.1 11.9 2 9.6
2006-03-21 08:37:02 51°17.742 2°52.391 12.2 11.9 2 9.6
2006-03-21 08:37:06 51°17.754 2°52.392 12 12 3 9.6
2006-03-21 08:37:12 51°17.774 2°52.393 11.9 12 1 9.5
2006-03-21 08:37:17 51°17.792 2°52.394 11.8 11.9 3 9.5
2006-03-21 08:37:22 51°17.808 2°52.395 12.3 11.9 2 9.7
2006-03-21 08:37:27 51°17.824 2°52.397 11.9 11.9 4 9.7
2006-03-21 08:37:32 51°17.841 2°52.399 13.4 12 4 9.7
2006-03-21 08:37:37 51°17.858 2°52.401 13.9 12.1 5 9.8
2006-03-21 08:37:41 51°17.871 2°52.404 14.6 12 5 9.7
2006-03-21 08:37:47 51°17.89 2°52.407 15.7 12 5 9.7
2006-03-21 08:37:52 51°17.907 2°52.41 15.9 11.8 6 9.9
2006-03-21 08:37:57 51°17.923 2°52.414 16.3 11.8 8 9.9
2006-03-21 08:38:02 51°17.938 2°52.417 17.3 11.9 8 9.7
2006-03-21 08:38:07 51°17.955 2°52.42 16.5 11.6 6 9.6
2006-03-21 08:38:12 51°17.971 2°52.423 16.4 11.7 6 9.6
2006-03-21 08:38:17 51°17.988 2°52.426 16.1 11.7 7 9.9
2006-03-21 08:38:21 51°18.001 2°52.428 15.9 11.8 7 9.7
2006-03-21 08:38:27 51°18.019 2°52.431 16.1 11.7 7 9.8
2006-03-21 08:38:32 51°18.036 2°52.434 16.2 11.7 6 9.9
2006-03-21 08:38:37 51°18.052 2°52.437 15.9 11.8 6 9.8
2006-03-21 08:38:41 51°18.066 2°52.439 15.7 11.8 6 10.1
2006-03-21 08:38:47 51°18.084 2°52.442 15.9 11.8 6 9.9
2006-03-21 08:38:52 51°18.1 2°52.446 17.5 11.6 8 9.7
2006-03-21 08:38:57 51°18.117 2°52.451 18.4 11.7 9 9.9
2006-03-21 08:39:02 51°18.132 2°52.455 19.3 11.8 10 10
2006-03-21 08:39:07 51°18.148 2°52.46 20.2 11.6 11 10
2006-03-21 08:39:12 51°18.164 2°52.464 21.1 11.9 11 10
2006-03-21 08:39:17 51°18.18 2°52.47 20.3 11.7 10 10.1
2006-03-21 08:39:21 51°18.193 2°52.474 21 11.6 12 10.1
2006-03-21 08:39:27 51°18.212 2°52.479 21.1 11.8 9 10.1
2006-03-21 08:39:32 51°18.228 2°52.485 20.8 11.7 12 10.3
2006-03-21 08:39:36 51°18.24 2°52.488 21.5 11.6 11 10.1
2006-03-21 08:39:42 51°18.259 2°52.495 21.3 11.7 11 10.2
2006-03-21 08:39:47 51°18.276 2°52.5 21.7 11.7 12 10.2
2006-03-21 08:39:52 51°18.291 2°52.504 21.4 11.8 12 10.4
2006-03-21 08:39:57 51°18.306 2°52.509 21.3 11.3 11 10
2006-03-21 08:40:01 51°18.319 2°52.514 21.6 11.5 12 10
2006-03-21 08:40:07 51°18.339 2°52.52 21.3 11.6 11 10.3
2006-03-21 08:40:12 51°18.353 2°52.525 21 11.4 12 10.3
2006-03-21 08:40:17 51°18.369 2°52.532 22.6 11.4 14 10.3
2006-03-21 08:40:21 51°18.381 2°52.536 23 11.7 13 10.3
2006-03-21 08:40:27 51°18.4 2°52.544 23.5 11.7 14 10.5
2006-03-21 08:40:32 51°18.415 2°52.551 24.4 11.6 15 10.4
2006-03-21 08:40:37 51°18.431 2°52.558 25.3 11.5 16 10.6
2006-03-21 08:40:42 51°18.447 2°52.565 25.2 11.6 15 10.5
2006-03-21 08:40:47 51°18.462 2°52.572 25.1 11.5 16 10.4
2006-03-21 08:40:52 51°18.478 2°52.579 25.8 11.7 16 10.7
2006-03-21 08:40:57 51°18.493 2°52.585 25.2 11.6 15 10.5
2006-03-21 08:41:02 51°18.509 2°52.593 25.1 11.6 16 10.6
2006-03-21 08:41:07 51°18.525 2°52.599 24.9 11.7 14 10.7
2006-03-21 08:41:12 51°18.54 2°52.605 24.7 11.7 15 10.6
2006-03-21 08:41:17 51°18.555 2°52.613 24.7 11.5 16 10.5
2006-03-21 08:41:22 51°18.571 2°52.62 25.3 11.6 15 10.7
2006-03-21 08:41:27 51°18.587 2°52.626 24.6 11.7 15 10.7
2006-03-21 08:41:32 51°18.603 2°52.633 24.8 11.7 15 10.7
2006-03-21 08:41:37 51°18.619 2°52.639 25 11.9 14 10.7
2006-03-21 08:41:41 51°18.631 2°52.645 24.5 11.9 16 10.8
2006-03-21 08:41:47 51°18.65 2°52.654 25 11.7 16 10.6
2006-03-21 08:41:52 51°18.666 2°52.661 25.4 11.7 16 11
2006-03-21 08:41:57 51°18.681 2°52.668 25 11.8 15 10.9
2006-03-21 08:42:01 51°18.694 2°52.673 25.2 11.8 16 11
2006-03-21 08:42:07 51°18.712 2°52.682 25.5 11.8 17 10.8
2006-03-21 08:42:12 51°18.729 2°52.689 25.4 11.7 16 10.9
2006-03-21 08:42:17 51°18.744 2°52.697 25.1 11.6 17 11
2006-03-21 08:42:22 51°18.759 2°52.703 25.7 11.7 16 11
2006-03-21 08:42:27 51°18.775 2°52.71 25.1 11.7 16 11.1
2006-03-21 08:42:32 51°18.79 2°52.717 25.1 11.7 16 11.2
2006-03-21 08:42:37 51°18.806 2°52.724 25.2 11.7 15 11.1
2006-03-21 08:42:42 51°18.822 2°52.732 25.4 11.8 17 11.1
2006-03-21 08:42:47 51°18.837 2°52.741 26.7 11.8 18 11.1
2006-03-21 08:42:52 51°18.853 2°52.749 27.4 11.7 18 11.2
2006-03-21 08:42:57 51°18.868 2°52.757 27.7 11.8 20 11.4
2006-03-21 08:43:02 51°18.883 2°52.766 28.3 11.8 20 11.4
2006-03-21 08:43:07 51°18.898 2°52.774 29 11.7 20 11.3
2006-03-21 08:43:11 51°18.911 2°52.782 29 11.7 20 11.3
2006-03-21 08:43:17 51°18.929 2°52.793 28.8 11.6 20 11.4
2006-03-21 08:43:22 51°18.945 2°52.801 28.6 11.5 19 11.5
2006-03-21 08:43:27 51°18.959 2°52.809 28.7 11.7 20 11.6
2006-03-21 08:43:32 51°18.974 2°52.818 28.6 11.5 19 11.4
2006-03-21 08:43:37 51°18.99 2°52.827 28.4 11.4 19 11.6
2006-03-21 08:43:42 51°19.005 2°52.836 28.7 11.5 19 11.6
2006-03-21 08:43:47 51°19.02 2°52.844 28.3 11.6 19 11.7
2006-03-21 08:43:52 51°19.035 2°52.853 28.4 11.6 21 11.6
2006-03-21 08:43:57 51°19.05 2°52.864 29.5 11.6 22 11.7
2006-03-21 08:44:02 51°19.064 2°52.875 31.9 11.5 26 11.6
2006-03-21 08:44:07 51°19.078 2°52.888 34.7 11.4 28 11.8
2006-03-21 08:44:12 51°19.092 2°52.9 37.6 11.4 32 11.8
2006-03-21 08:44:17 51°19.105 2°52.914 39.5 11.5 32 11.8
2006-03-21 08:44:22 51°19.118 2°52.929 40.7 11.3 34 11.9
2006-03-21 08:44:26 51°19.128 2°52.94 42 11.5 35 12
2006-03-21 08:44:31 51°19.141 2°52.954 43.2 11.4 35 12
2006-03-21 08:44:37 51°19.156 2°52.973 43.7 11.6 37 12
2006-03-21 08:44:42 51°19.169 2°52.987 43.9 11.6 36 12
2006-03-21 08:44:47 51°19.182 2°53.004 43.9 11.2 38 11.8
2006-03-21 08:44:52 51°19.195 2°53.019 44 11.4 37 12
2006-03-21 08:44:57 51°19.208 2°53.034 44.2 11.5 37 12.1
2006-03-21 08:45:02 51°19.22 2°53.048 44 11.4 35 12
2006-03-21 08:45:07 51°19.233 2°53.062 44 11.4 37 11.9
2006-03-21 08:45:11 51°19.243 2°53.075 43.6 11.5 36 12.1
2006-03-21 08:45:17 51°19.259 2°53.093 43.5 11.5 36 12.2
2006-03-21 08:45:22 51°19.272 2°53.107 42.6 11.3 36 12.2
2006-03-21 08:45:27 51°19.285 2°53.122 42.8 11.4 35 12.2
2006-03-21 08:45:32 51°19.298 2°53.136 43.1 11.5 36 12.3
2006-03-21 08:45:37 51°19.311 2°53.151 42.8 11.5 35 12.2
2006-03-21 08:45:42 51°19.324 2°53.166 42.9 11.6 35 12.4
2006-03-21 08:45:47 51°19.337 2°53.18 42.9 11.6 36 12.3
2006-03-21 08:45:52 51°19.35 2°53.195 43.5 11.6 36 12.3
2006-03-21 08:45:57 51°19.362 2°53.211 44.2 11.5 38 12.4
2006-03-21 08:46:02 51°19.374 2°53.227 45.5 11.4 38 12.1
2006-03-21 08:46:07 51°19.387 2°53.244 45.5 11.1 40 12.3
2006-03-21 08:46:12 51°19.399 2°53.259 46.4 11.1 39 12.4
2006-03-21 08:46:17 51°19.411 2°53.274 46.5 11.3 39 12.3
2006-03-21 08:46:21 51°19.421 2°53.287 46.4 11.3 39 12.4
2006-03-21 08:46:27 51°19.436 2°53.305 46.1 11.4 38 12.4
2006-03-21 08:46:32 51°19.448 2°53.321 46.1 11.4 38 12.6
2006-03-21 08:46:37 51°19.46 2°53.336 45.8 11.2 39 12.4
2006-03-21 08:46:41 51°19.47 2°53.349 46.6 11.4 39 12.5
2006-03-21 08:46:47 51°19.485 2°53.369 46.5 11.2 40 12.6
2006-03-21 08:46:52 51°19.497 2°53.385 46.3 11.4 39 12.9
2006-03-21 08:46:57 51°19.51 2°53.399 45.9 11.3 38 12.6
2006-03-21 08:47:02 51°19.522 2°53.415 45.5 11.3 37 12.5
2006-03-21 08:47:07 51°19.535 2°53.431 45.5 11.3 39 12.8
2006-03-21 08:47:12 51°19.548 2°53.446 45.1 11.3 37 12.7
2006-03-21 08:47:17 51°19.559 2°53.46 45.3 11.3 38 12.7
2006-03-21 08:47:22 51°19.571 2°53.476 45.9 11.4 39 12.7
2006-03-21 08:47:27 51°19.584 2°53.492 45.8 11.2 37 12.5
2006-03-21 08:47:32 51°19.596 2°53.507 45.8 11.4 38 12.6
2006-03-21 08:47:37 51°19.609 2°53.524 45.9 11.3 40 12.8
2006-03-21 08:47:42 51°19.621 2°53.539 45.7 11.2 37 12.8
2006-03-21 08:47:47 51°19.633 2°53.554 45.9 11.2 39 12.7
2006-03-21 08:47:52 51°19.646 2°53.57 46.1 11.2 37 12.7
2006-03-21 08:47:57 51°19.658 2°53.585 46.1 11.3 39 12.8
2006-03-21 08:48:02 51°19.671 2°53.6 45.9 11.4 38 12.8
2006-03-21 08:48:07 51°19.683 2°53.616 45.9 11.5 38 12.8
2006-03-21 08:48:12 51°19.696 2°53.632 45.7 11.4 38 12.8
2006-03-21 08:48:17 51°19.708 2°53.647 45.8 11.5 39 13
2006-03-21 08:48:21 51°19.718 2°53.66 45.8 11.5 38 12.9
2006-03-21 08:48:27 51°19.733 2°53.679 46.2 11.5 39 13.1
2006-03-21 08:48:32 51°19.745 2°53.695 46 11.6 38 13
2006-03-21 08:48:37 51°19.758 2°53.712 45.5 11.5 38 13
2006-03-21 08:48:41 51°19.768 2°53.724 45.5 11.5 37 13.1
2006-03-21 08:48:47 51°19.784 2°53.743 45.4 11.6 37 13.1
2006-03-21 08:48:52 51°19.797 2°53.758 45.7 11.6 38 13.1
2006-03-21 08:48:57 51°19.809 2°53.773 45.4 11.6 38 13.2
2006-03-21 08:49:02 51°19.821 2°53.79 45.6 11.4 39 12.9
2006-03-21 08:49:06 51°19.831 2°53.802 46.2 11.3 38 13
2006-03-21 08:49:12 51°19.846 2°53.82 46.3 11.5 39 13
2006-03-21 08:49:17 51°19.859 2°53.837 45.8 11.4 38 13.2
2006-03-21 08:49:22 51°19.871 2°53.852 45.6 11.4 39 13.3
2006-03-21 08:49:27 51°19.884 2°53.868 45.3 11.5 37 13.2
2006-03-21 08:49:31 51°19.894 2°53.879 45.1 11.5 37 13.2
2006-03-21 08:49:37 51°19.909 2°53.898 45.2 11.6 37 13.4
2006-03-21 08:49:41 51°19.919 2°53.91 45.3 11.5 38 13.2
2006-03-21 08:49:47 51°19.935 2°53.928 45.4 11.5 37 13.3
2006-03-21 08:49:51 51°19.945 2°53.942 45.3 11.6 38 13.5
2006-03-21 08:49:57 51°19.96 2°53.96 45 11.4 38 13.2
2006-03-21 08:50:01 51°19.97 2°53.972 45.6 11.4 38 13.5
2006-03-21 08:50:07 51°19.985 2°53.991 45.5 11.4 37 13.2
2006-03-21 08:50:11 51°19.995 2°54.003 45.5 11.5 37 13.5
2006-03-21 08:50:17 51°20.011 2°54.022 45.3 11.5 37 13.3
2006-03-21 08:50:22 51°20.025 2°54.038 45.4 11.5 38 13.5
2006-03-21 08:50:27 51°20.036 2°54.053 45.5 11.5 38 13.5
2006-03-21 08:50:32 51°20.049 2°54.07 45.6 11.5 38 13.5
2006-03-21 08:50:37 51°20.062 2°54.085 45.7 11.5 37 13.7
2006-03-21 08:50:41 51°20.072 2°54.097 46.1 11.5 38 13.5
2006-03-21 08:50:47 51°20.088 2°54.116 46 11.6 37 13.7
2006-03-21 08:50:52 51°20.1 2°54.132 45.8 11.5 38 13.7
2006-03-21 08:50:57 51°20.113 2°54.148 45.9 11.6 38 13.8
2006-03-21 08:51:02 51°20.125 2°54.162 45.9 11.6 38 13.8
2006-03-21 08:51:07 51°20.137 2°54.176 46 11.5 37 13.7
2006-03-21 08:51:12 51°20.15 2°54.193 45.6 11.4 38 13.6
2006-03-21 08:51:17 51°20.162 2°54.208 45.9 11.5 37 13.7
2006-03-21 08:51:22 51°20.174 2°54.223 45.7 11.5 39 13.4
2006-03-21 08:51:27 51°20.188 2°54.239 45.7 11.3 36 13.5
2006-03-21 08:51:32 51°20.201 2°54.255 45.7 11.4 38 13.6
2006-03-21 08:51:37 51°20.214 2°54.27 45.1 11.5 37 13.8
2006-03-21 08:51:42 51°20.226 2°54.284 45 11.6 36 14
2006-03-21 08:51:47 51°20.239 2°54.3 44.6 11.5 38 13.9
2006-03-21 08:51:52 51°20.252 2°54.315 45.3 11.5 36 14
2006-03-21 08:51:57 51°20.265 2°54.331 45 11.5 37 14.2
2006-03-21 08:52:02 51°20.276 2°54.344 44.7 11.6 36 14.1
2006-03-21 08:52:07 51°20.289 2°54.36 44.9 11.5 37 13.9
2006-03-21 08:52:12 51°20.303 2°54.377 45 11.3 37 13.8
2006-03-21 08:52:17 51°20.315 2°54.391 45.6 11.3 38 14.2
2006-03-21 08:52:21 51°20.326 2°54.402 45.2 11.4 35 14.1
2006-03-21 08:52:27 51°20.342 2°54.418 42.6 11.2 35 14
2006-03-21 08:52:32 51°20.356 2°54.429 39.9 11.4 28 14.1
2006-03-21 08:52:37 51°20.37 2°54.438 37 11.6 23 14.3
2006-03-21 08:52:42 51°20.385 2°54.448 34.1 11.7 22 14.1
2006-03-21 08:52:47 51°20.401 2°54.456 31.6 11.6 21 14.4
2006-03-21 08:52:52 51°20.415 2°54.465 30.7 11.6 21 14.5
2006-03-21 08:52:57 51°20.432 2°54.473 29.9 11.9 19 14.5
2006-03-21 08:53:02 51°20.445 2°54.481 29.2 11.7 19 14.8
2006-03-21 08:53:07 51°20.462 2°54.491 29.4 11.8 20 14.4
2006-03-21 08:53:12 51°20.476 2°54.499 28.9 11.8 19 14.2
2006-03-21 08:53:17 51°20.493 2°54.508 29.1 11.6 19 14.4
2006-03-21 08:53:22 51°20.507 2°54.516 29.2 11.7 19 14.7
2006-03-21 08:53:27 51°20.522 2°54.524 29 11.6 19 14.6
2006-03-21 08:53:32 51°20.538 2°54.533 29.3 11.8 19 14.7
2006-03-21 08:53:37 51°20.555 2°54.543 29.6 11.6 20 14.8
2006-03-21 08:53:42 51°20.569 2°54.55 29.6 11.4 19 15
2006-03-21 08:53:47 51°20.584 2°54.557 29.3 11.5 18 15
2006-03-21 08:53:52 51°20.6 2°54.563 27 11.6 13 14.9
2006-03-21 08:53:57 51°20.616 2°54.567 23.9 11.8 11 15.1
2006-03-21 08:54:01 51°20.629 2°54.57 21.3 11.8 9 15.1
2006-03-21 08:54:07 51°20.649 2°54.573 19.1 11.9 7 15.2
2006-03-21 08:54:12 51°20.664 2°54.575 17.6 12.1 5 15.3
2006-03-21 08:54:17 51°20.682 2°54.577 15.9 11.8 4 15
2006-03-21 08:54:22 51°20.699 2°54.579 15.4 11.9 3 15.3
2006-03-21 08:54:27 51°20.716 2°54.58 15 12 3 15.2
2006-03-21 08:54:32 51°20.731 2°54.581 14.5 12 3 15.4
2006-03-21 08:54:37 51°20.747 2°54.583 14.3 11.9 3 15.3
2006-03-21 08:54:41 51°20.761 2°54.585 14.6 12 4 15.3
2006-03-21 08:54:47 51°20.781 2°54.587 14.8 12.1 4 15.5
2006-03-21 08:54:52 51°20.798 2°54.589 15.2 12 4 15.4
2006-03-21 08:54:57 51°20.815 2°54.591 15.8 12.2 4 15.5
2006-03-21 08:55:02 51°20.83 2°54.593 15.9 12 5 15.2
2006-03-21 08:55:07 51°20.847 2°54.596 15.7 12 4 15.4
2006-03-21 08:55:12 51°20.865 2°54.597 16.1 12 5 15.3
2006-03-21 08:55:17 51°20.881 2°54.6 16 12 5 15.5
2006-03-21 08:55:22 51°20.897 2°54.602 16.1 12.1 5 15.4
2006-03-21 08:55:27 51°20.914 2°54.604 16.3 12.2 5 15.6
2006-03-21 08:55:32 51°20.931 2°54.606 15.9 12.2 5 15.5
2006-03-21 08:55:37 51°20.948 2°54.609 16.1 12.1 5 15.7
2006-03-21 08:55:42 51°20.963 2°54.611 16 11.9 5 15.6
2006-03-21 08:55:47 51°20.982 2°54.614 15.9 11.8 4 15.3
2006-03-21 08:55:52 51°20.996 2°54.615 16.2 11.8 5 15.6
2006-03-21 08:55:57 51°21.013 2°54.617 16.3 11.5 5 15.4
2006-03-21 08:56:01 51°21.026 2°54.62 16.1 11.5 5 15.6
2006-03-21 08:56:07 51°21.045 2°54.622 16.1 11.7 6 15.7
2006-03-21 08:56:12 51°21.061 2°54.625 16.3 11.6 6 15.5
2006-03-21 08:56:17 51°21.078 2°54.627 16.2 11.8 5 15.7
2006-03-21 08:56:22 51°21.094 2°54.629 16.2 12 5 15.8
2006-03-21 08:56:27 51°21.111 2°54.631 16.2 12.1 5 15.8
2006-03-21 08:56:32 51°21.129 2°54.634 16.4 12.1 5 15.7
2006-03-21 08:56:37 51°21.145 2°54.636 16.3 12.1 5 15.9
2006-03-21 08:56:42 51°21.161 2°54.638 16.3 12.1 5 15.8
2006-03-21 08:56:47 51°21.179 2°54.641 16.6 12.1 5 16
2006-03-21 08:56:52 51°21.195 2°54.643 16.4 11.9 5 16
2006-03-21 08:56:57 51°21.211 2°54.646 16.4 12.1 5 15.9
2006-03-21 08:57:01 51°21.225 2°54.647 16.6 12.1 5 16
2006-03-21 08:57:07 51°21.244 2°54.65 16.4 12.1 5 15.9
2006-03-21 08:57:12 51°21.261 2°54.652 16.4 12 5 15.7
2006-03-21 08:57:17 51°21.278 2°54.655 16.7 12.1 5 15.8
2006-03-21 08:57:21 51°21.29 2°54.657 17 12.1 6 15.7
2006-03-21 08:57:27 51°21.311 2°54.66 17 11.9 5 15.9
2006-03-21 08:57:32 51°21.328 2°54.663 17.1 12 5 16
2006-03-21 08:57:37 51°21.343 2°54.665 16.7 12 4 16
2006-03-21 08:57:41 51°21.357 2°54.666 16.6 11.8 4 15.9
2006-03-21 08:57:47 51°21.377 2°54.669 16 11.9 5 16.1
2006-03-21 08:57:52 51°21.395 2°54.672 16.3 11.9 5 16.2
2006-03-21 08:57:57 51°21.41 2°54.674 16.4 12 6 16.4
2006-03-21 08:58:02 51°21.426 2°54.677 16.7 12 6 16.2
2006-03-21 08:58:07 51°21.444 2°54.68 16.9 12 6 16.1
2006-03-21 08:58:12 51°21.46 2°54.682 16.9 12.1 6 16.2
2006-03-21 08:58:17 51°21.477 2°54.685 17.2 12.1 6 16.2
2006-03-21 08:58:21 51°21.491 2°54.687 17 12.2 6 16.2
2006-03-21 08:58:27 51°21.511 2°54.691 16.9 12.2 6 16.2
2006-03-21 08:58:32 51°21.528 2°54.695 17.3 12.2 6 16.1
2006-03-21 08:58:37 51°21.546 2°54.697 17.4 12.2 6 16.3
2006-03-21 08:58:41 51°21.558 2°54.7 17.5 12.3 7 16.3
2006-03-21 08:58:47 51°21.578 2°54.704 17.6 12.1 7 16.1
2006-03-21 08:58:52 51°21.596 2°54.706 17.8 12.1 7 16.1
2006-03-21 08:58:57 51°21.611 2°54.709 17.6 12 6 16.4
2006-03-21 08:59:01 51°21.624 2°54.711 17.3 12.2 5 16.1
2006-03-21 08:59:07 51°21.646 2°54.714 17.1 12.1 6 16.4
2006-03-21 08:59:12 51°21.662 2°54.716 17 12.2 6 16.4
2006-03-21 08:59:17 51°21.679 2°54.719 17 12.2 6 16.4
2006-03-21 08:59:21 51°21.692 2°54.722 17 12.2 6 16.2
2006-03-21 08:59:27 51°21.713 2°54.726 17.4 12 7 16.2
2006-03-21 08:59:32 51°21.729 2°54.728 17.8 12.1 6 16.5
2006-03-21 08:59:37 51°21.746 2°54.731 17.9 12 6 16.2
2006-03-21 08:59:41 51°21.76 2°54.733 17.5 12.2 6 16.6
2006-03-21 08:59:47 51°21.779 2°54.737 17.3 12.1 7 16.4
2006-03-21 08:59:52 51°21.796 2°54.739 17.4 12.2 5 16.5
2006-03-21 08:59:57 51°21.812 2°54.742 17.2 12.3 6 16.6
2006-03-21 09:00:02 51°21.829 2°54.745 17.2 12.1 7 16.3
2006-03-21 09:00:07 51°21.845 2°54.748 17.6 11.8 6 16.6
2006-03-21 09:00:12 51°21.863 2°54.75 17.5 12 5 16.5
2006-03-21 09:00:17 51°21.879 2°54.753 17.2 12.1 6 16.6
2006-03-21 09:00:21 51°21.892 2°54.754 17 12.1 5 16.4
2006-03-21 09:00:27 51°21.912 2°54.758 16.7 12.2 5 16.6
2006-03-21 09:00:31 51°21.926 2°54.759 16.6 12.2 6 16.6
2006-03-21 09:00:37 51°21.946 2°54.763 17.3 12.1 6 16.5
2006-03-21 09:00:41 51°21.96 2°54.766 17.2 12.1 6 16.9
2006-03-21 09:00:47 51°21.979 2°54.769 17 12.1 5 16.7
2006-03-21 09:00:52 51°21.997 2°54.771 17 12 6 16.9
2006-03-21 09:00:57 51°22.013 2°54.774 16.7 12.1 6 17.5
2006-03-21 09:01:01 51°22.026 2°54.776 16.9 12 6 17.4
2006-03-21 09:01:07 51°22.047 2°54.779 17.2 11.9 6 17.9
2006-03-21 09:01:12 51°22.063 2°54.782 17 12 5 18
2006-03-21 09:01:17 51°22.08 2°54.785 16.8 12 5 17.8
2006-03-21 09:01:21 51°22.093 2°54.787 17.2 12.1 6 17.9
2006-03-21 09:01:27 51°22.112 2°54.789 17.3 12.2 5 17.8
2006-03-21 09:01:32 51°22.13 2°54.792 16.7 12.2 6 17.8
2006-03-21 09:01:37 51°22.147 2°54.795 17 12.1 6 17.9
2006-03-21 09:01:42 51°22.163 2°54.797 17 12.2 5 18
2006-03-21 09:01:47 51°22.181 2°54.8 16.8 12.1 5 17.9
2006-03-21 09:01:52 51°22.198 2°54.802 16.9 12.1 5 17.8
2006-03-21 09:01:57 51°22.214 2°54.805 17.2 12.2 6 17.8
2006-03-21 09:02:01 51°22.227 2°54.807 16.6 12.1 5 17.8
2006-03-21 09:02:07 51°22.248 2°54.81 17.3 12.1 6 17.9
2006-03-21 09:02:12 51°22.264 2°54.812 17.1 12.3 4 18.1
2006-03-21 09:02:17 51°22.28 2°54.814 16.9 12.3 6 17.8
2006-03-21 09:02:21 51°22.293 2°54.817 17 12.1 5 17.6
2006-03-21 09:02:27 51°22.314 2°54.82 17.5 12 6 17.8
2006-03-21 09:02:31 51°22.328 2°54.822 17.9 12 6 17.9
2006-03-21 09:02:37 51°22.347 2°54.825 18 11.8 7 17.4
2006-03-21 09:02:41 51°22.36 2°54.828 17.9 11.7 6 17.5
2006-03-21 09:02:47 51°22.38 2°54.831 17.9 12.1 6 17.5
2006-03-21 09:02:52 51°22.396 2°54.835 17.3 12 5 17.1
2006-03-21 09:02:57 51°22.413 2°54.837 18.1 11.8 6 17.2
2006-03-21 09:03:02 51°22.429 2°54.841 17.6 11.8 7 17.4
2006-03-21 09:03:07 51°22.444 2°54.845 18.1 11.8 9 17.5
2006-03-21 09:03:11 51°22.457 2°54.85 21.2 11.6 13 17.7
2006-03-21 09:03:17 51°22.476 2°54.859 24.2 11.8 15 18
2006-03-21 09:03:22 51°22.491 2°54.868 26.8 11.6 20 17.7
2006-03-21 09:03:27 51°22.507 2°54.879 29 11.4 22 17.7
2006-03-21 09:03:32 51°22.521 2°54.891 32.2 11.2 28 18
2006-03-21 09:03:37 51°22.533 2°54.902 37 11.4 28 18
2006-03-21 09:03:41 51°22.544 2°54.913 39.4 11.4 32 17.9
2006-03-21 09:03:47 51°22.56 2°54.931 41.3 11.4 33 18.1
2006-03-21 09:03:52 51°22.573 2°54.946 43.6 11.4 37 18.1
2006-03-21 09:03:57 51°22.585 2°54.962 45.3 11.5 36 18.4
2006-03-21 09:04:02 51°22.596 2°54.977 46.9 11.5 41 18.4
2006-03-21 09:04:07 51°22.609 2°54.995 48.1 11.4 40 18.3
2006-03-21 09:04:12 51°22.62 2°55.012 49.5 11.4 45 18.4
2006-03-21 09:04:17 51°22.632 2°55.03 51.8 11.4 44 18.1
2006-03-21 09:04:21 51°22.641 2°55.045 51.9 11.4 45 18.3
2006-03-21 09:04:27 51°22.654 2°55.066 52.6 11.4 45 18.3
2006-03-21 09:04:32 51°22.664 2°55.084 53.3 11.5 47 18.5
2006-03-21 09:04:37 51°22.676 2°55.105 54 11.1 47 18.3
2006-03-21 09:04:42 51°22.686 2°55.121 54.7 11.1 47 18.6
2006-03-21 09:04:47 51°22.695 2°55.138 55.1 11.1 48 18.4
2006-03-21 09:04:52 51°22.706 2°55.158 55.1 11.2 47 17.9
2006-03-21 09:04:57 51°22.718 2°55.176 53.9 11.2 46 17.9
2006-03-21 09:05:02 51°22.728 2°55.193 53.7 11.1 47 18
2006-03-21 09:05:07 51°22.738 2°55.212 53.3 11.3 46 17.9
2006-03-21 09:05:12 51°22.75 2°55.23 53.1 11.4 45 18.1
2006-03-21 09:05:17 51°22.761 2°55.247 52.8 11.4 46 18.3
2006-03-21 09:05:21 51°22.77 2°55.262 52.9 11.5 45 18.2
2006-03-21 09:05:27 51°22.783 2°55.284 53.5 11.4 47 18.2
2006-03-21 09:05:32 51°22.794 2°55.303 54.4 11.7 47 18.2
2006-03-21 09:05:37 51°22.805 2°55.321 53.7 11.4 46 18
2006-03-21 09:05:42 51°22.816 2°55.342 54.7 11.4 49 17.8
2006-03-21 09:05:47 51°22.827 2°55.359 54.9 11.7 46 18.1
2006-03-21 09:05:52 51°22.837 2°55.378 54.4 11.4 49 18.1
2006-03-21 09:05:57 51°22.848 2°55.396 55 11.5 46 18.1
2006-03-21 09:06:02 51°22.859 2°55.415 54.2 11.5 47 17.8
2006-03-21 09:06:07 51°22.87 2°55.433 53.5 11.3 46 17.8
2006-03-21 09:06:12 51°22.881 2°55.451 53.5 11.3 47 18
2006-03-21 09:06:17 51°22.892 2°55.469 53.9 11.4 46 18.2
2006-03-21 09:06:21 51°22.901 2°55.484 53.8 11.5 48 18.2
2006-03-21 09:06:27 51°22.914 2°55.507 53.4 11.5 45 18.3
2006-03-21 09:06:32 51°22.925 2°55.526 54.6 11.5 50 18.3
2006-03-21 09:06:37 51°22.935 2°55.543 54.3 11.8 45 18.3
2006-03-21 09:06:42 51°22.947 2°55.563 53.7 11.8 45 18
2006-03-21 09:06:47 51°22.957 2°55.581 54.6 11.5 47 18.1
2006-03-21 09:06:52 51°22.968 2°55.601 53.7 11.5 47 18.1
2006-03-21 09:06:57 51°22.979 2°55.62 55 11.3 47 17.8
2006-03-21 09:07:01 51°22.987 2°55.636 54.6 11.4 50 18.1
2006-03-21 09:07:07 51°23 2°55.656 54.6 11.3 47 18
2006-03-21 09:07:12 51°23.011 2°55.674 53.7 11.2 46 17.8
2006-03-21 09:07:17 51°23.022 2°55.693 53.9 11.4 47 17.8
2006-03-21 09:07:22 51°23.033 2°55.712 53.4 11.4 46 18
2006-03-21 09:07:27 51°23.044 2°55.729 53.3 11.4 48 18.4
2006-03-21 09:07:32 51°23.055 2°55.747 54.5 11.4 48 18.2
2006-03-21 09:07:37 51°23.065 2°55.766 54.4 11.4 46 18.1
2006-03-21 09:07:42 51°23.076 2°55.785 54.5 11.4 46 18.1
2006-03-21 09:07:47 51°23.087 2°55.804 54.5 11.4 49 18.4
2006-03-21 09:07:52 51°23.097 2°55.822 55 11.4 48 18.4
2006-03-21 09:07:57 51°23.108 2°55.841 55 11.5 48 18.4
2006-03-21 09:08:02 51°23.118 2°55.859 54 11.3 46 18.2
2006-03-21 09:08:07 51°23.13 2°55.878 54.2 11.5 48 18.5
2006-03-21 09:08:12 51°23.14 2°55.896 53.7 11.5 46 18.4
2006-03-21 09:08:17 51°23.151 2°55.914 53.5 11.6 47 18.4
2006-03-21 09:08:22 51°23.162 2°55.932 53.8 11.6 47 18.7
2006-03-21 09:08:27 51°23.174 2°55.952 53.6 11.5 46 18.5
2006-03-21 09:08:32 51°23.184 2°55.97 52.9 11.7 45 18.4
2006-03-21 09:08:37 51°23.196 2°55.989 53.2 11.6 46 18.5
2006-03-21 09:08:41 51°23.205 2°56.004 52.9 11.6 46 18.6
2006-03-21 09:08:47 51°23.218 2°56.025 54.3 11.7 48 18.8
2006-03-21 09:08:52 51°23.228 2°56.044 53.8 11.6 47 18.6
2006-03-21 09:08:57 51°23.24 2°56.064 53.7 11.6 47 18.3
2006-03-21 09:09:01 51°23.249 2°56.078 54.9 11.5 46 18.6
2006-03-21 09:09:07 51°23.26 2°56.1 54.1 11.5 48 18.5
2006-03-21 09:09:12 51°23.271 2°56.121 54.8 11.2 49 18.2
2006-03-21 09:09:17 51°23.28 2°56.138 56.1 11 52 18.7
2006-03-21 09:09:22 51°23.29 2°56.157 57.3 11 52 18.4
2006-03-21 09:09:27 51°23.299 2°56.176 57.4 10.8 49 18.4
2006-03-21 09:09:32 51°23.31 2°56.195 56.9 11 50 18.6
2006-03-21 09:09:37 51°23.321 2°56.214 54.9 11.3 48 18.6
2006-03-21 09:09:42 51°23.332 2°56.231 54.5 11.4 47 18.6
2006-03-21 09:09:47 51°23.343 2°56.251 53.6 11.6 48 18.5
2006-03-21 09:09:52 51°23.353 2°56.27 54.5 11.7 48 18.7
2006-03-21 09:09:57 51°23.364 2°56.29 56.1 11.6 51 18.8
2006-03-21 09:10:02 51°23.374 2°56.309 56.6 11.4 49 18.6
2006-03-21 09:10:07 51°23.385 2°56.33 57 11.5 50 18.7
2006-03-21 09:10:12 51°23.394 2°56.346 57.1 11.5 49 18.4
2006-03-21 09:10:17 51°23.405 2°56.366 55.7 11.4 48 18.6
2006-03-21 09:10:22 51°23.415 2°56.383 55.1 11.4 48 18.5
2006-03-21 09:10:27 51°23.426 2°56.403 54.2 11.3 48 18.3
2006-03-21 09:10:32 51°23.437 2°56.422 54.9 11.5 48 18.3
2006-03-21 09:10:37 51°23.448 2°56.439 55.4 11.4 48 18.5
2006-03-21 09:10:42 51°23.457 2°56.457 54.8 11.4 48 18.4
2006-03-21 09:10:47 51°23.468 2°56.477 56.1 10.9 48 18.1
2006-03-21 09:10:52 51°23.477 2°56.496 56.2 10.9 48 18.3
2006-03-21 09:10:57 51°23.488 2°56.515 55.3 11.1 50 18
2006-03-21 09:11:02 51°23.498 2°56.533 55.2 11.1 50 17.3
2006-03-21 09:11:07 51°23.509 2°56.552 55.1 11.4 47 18.4
2006-03-21 09:11:12 51°23.52 2°56.571 54.8 11.4 47 18.6
2006-03-21 09:11:17 51°23.531 2°56.589 54.4 11.5 47 18.3
2006-03-21 09:11:22 51°23.541 2°56.609 54.6 11.5 47 16.6
2006-03-21 09:11:27 51°23.552 2°56.627 55.3 11.7 48 18.1
2006-03-21 09:11:32 51°23.562 2°56.647 56 11.7 48 18.3
2006-03-21 09:11:37 51°23.572 2°56.666 56.7 11.5 50 17.8
2006-03-21 09:11:42 51°23.582 2°56.686 56.9 11.5 50 15.9
2006-03-21 09:11:47 51°23.591 2°56.707 57.3 11.2 51 16
2006-03-21 09:11:52 51°23.601 2°56.724 57.6 11.2 51 16.2